< < Back
Terminal Aerodrome Forecast


Current Version              Previous Versions:   1  2  3  4  5  6  7  8  9  

Terminal Aerodrome Forecast

821
FTUS42 KCAE 310836 AAC
TAFAGS
TAF AMD
KAGS 310836Z 3109/0106 00000KT 3SM BR FEW006 SCT250
     FM311300 06007KT P6SM SCT035
     FM010000 VRB03KT P6SM SCT250=



Latest METAR

683
SAUS70 KWBC 311400 RRA
MTRAGS
METAR KAGS 311353Z COR 00000KT 8SM BKN110 27/23 A2998 RMK AO2 SLP149
T02670228


USA.gov is the U.S. government's official web portal to all federal, state and local government web resources and services.